Time;durP1;ratioP1;P1;durP2;ratioP2;P2;SDS_P1;SDS_P2;PMS_P1;PMS_P2;Temp;Humidity;BMP_temperature;BMP_pressure;BME280_temperature;BME280_humidity;BME280_pressure;Samples;Min_cycle;Max_cycle;Signal;HPM_P1;HPM_P2
2022/07/23 00:02:22;;;;;;;15.00;13.43;;;;;;;26.48;46.98;100249.69;5040178;27;98139;-88
2022/07/23 00:04:47;;;;;;;14.48;13.00;;;;;;;26.33;47.33;100249.41;5022885;27;100430;-86
2022/07/23 00:07:13;;;;;;;15.35;13.88;;;;;;;26.38;47.32;100261.38;5035233;27;97456;-87
2022/07/23 00:09:39;;;;;;;14.93;13.73;;;;;;;26.30;46.93;100245.19;5020285;27;96827;-87
2022/07/23 00:12:05;;;;;;;14.88;13.40;;;;;;;26.34;47.40;100254.63;5031861;27;98231;-86
2022/07/23 00:14:30;;;;;;;15.15;13.73;;;;;;;26.36;47.28;100266.06;5032550;27;98272;-87
2022/07/23 00:16:56;;;;;;;15.40;14.02;;;;;;;26.32;47.29;100263.84;5012583;27;97508;-86
2022/07/23 00:19:21;;;;;;;14.57;13.50;;;;;;;26.29;47.33;100262.28;5040805;27;96931;-87
2022/07/23 00:21:47;;;;;;;14.80;13.48;;;;;;;26.24;47.31;100259.25;5018905;27;102100;-87
2022/07/23 00:24:12;;;;;;;15.15;13.73;;;;;;;26.23;47.28;100267.47;5035100;27;97979;-87
2022/07/23 00:26:38;;;;;;;15.00;13.63;;;;;;;26.26;47.25;100265.28;5036917;27;97037;-86
2022/07/23 00:29:03;;;;;;;16.02;14.48;;;;;;;26.15;47.39;100265.53;5023939;27;97116;-87
2022/07/23 00:31:29;;;;;;;15.55;14.10;;;;;;;26.10;47.35;100268.69;5039803;27;100794;-86
2022/07/23 00:33:57;;;;;;;14.13;12.93;;;;;;;25.97;47.44;100250.25;5036972;27;101409;-87
2022/07/23 00:36:23;;;;;;;14.77;13.45;;;;;;;26.07;47.48;100263.63;5023918;27;96705;-87
2022/07/23 00:38:49;;;;;;;14.55;13.10;;;;;;;25.98;47.52;100253.78;5020903;27;96949;-88
2022/07/23 00:41:15;;;;;;;16.25;14.70;;;;;;;26.02;47.37;100276.69;5034662;27;98086;-87
2022/07/23 00:43:41;;;;;;;14.73;13.35;;;;;;;25.87;47.60;100260.22;5029703;27;100062;-87
2022/07/23 00:46:06;;;;;;;13.75;12.45;;;;;;;25.96;47.59;100283.50;5012849;28;96787;-87
2022/07/23 00:48:32;;;;;;;15.00;13.50;;;;;;;25.88;47.60;100271.84;5008015;28;97409;-87
2022/07/23 00:50:57;;;;;;;13.90;12.77;;;;;;;25.90;47.48;100269.84;5002908;28;101162;-87
2022/07/23 00:53:24;;;;;;;13.93;12.75;;;;;;;25.66;47.76;100259.66;4985707;28;101627;-86
2022/07/23 00:55:49;;;;;;;13.75;12.43;;;;;;;25.58;47.88;100248.81;5025836;28;96615;-87
2022/07/23 00:58:16;;;;;;;14.25;12.88;;;;;;;25.56;48.07;100256.16;5007358;28;96924;-87
2022/07/23 01:00:41;;;;;;;19.75;13.98;;;;;;;25.50;47.63;100226.19;5027191;28;98534;-87
2022/07/23 01:03:07;;;;;;;14.90;13.43;;;;;;;25.58;47.93;100256.88;5008868;28;99951;-86
2022/07/23 01:05:33;;;;;;;14.27;12.95;;;;;;;25.67;47.82;100266.72;5008898;28;96828;-86
2022/07/23 01:07:59;;;;;;;14.35;13.00;;;;;;;25.39;48.33;100231.78;5010223;28;96893;-87
2022/07/23 01:10:30;;;;;;;14.45;13.05;;;;;;;25.29;48.56;100239.91;4998962;28;101694;-86
2022/07/23 01:13:00;;;;;;;14.65;13.40;;;;;;;25.35;48.67;100254.56;4996449;28;101039;-86
2022/07/23 01:15:27;;;;;;;15.13;13.77;;;;;;;25.40;48.48;100259.53;5011071;28;96721;-86
2022/07/23 01:17:53;;;;;;;13.55;12.55;;;;;;;25.30;48.70;100252.31;4992685;28;97007;-87
2022/07/23 01:20:19;;;;;;;14.55;13.45;;;;;;;25.32;48.73;100264.78;4993149;28;100614;-87
2022/07/23 01:22:45;;;;;;;14.82;13.65;;;;;;;25.27;48.96;100270.59;5012490;28;101021;-86
2022/07/23 01:25:11;;;;;;;14.52;13.30;;;;;;;25.18;49.28;100258.06;5002922;28;96743;-86
2022/07/23 01:27:40;;;;;;;14.80;13.32;;;;;;;25.24;49.14;100247.56;5012229;28;96857;-86
2022/07/23 01:30:06;;;;;;;14.75;13.55;;;;;;;25.20;49.37;100267.66;4995995;28;101214;-87
2022/07/23 01:32:32;;;;;;;14.10;12.90;;;;;;;25.19;49.71;100254.38;5010623;28;98444;-86
2022/07/23 01:34:57;;;;;;;14.52;13.32;;;;;;;25.22;49.15;100248.69;5020658;28;97102;-87
2022/07/23 01:37:23;;;;;;;14.57;13.30;;;;;;;25.30;49.11;100267.59;4993225;28;97252;-86
2022/07/23 01:39:49;;;;;;;14.32;12.95;;;;;;;25.31;49.12;100274.69;5012364;28;101826;-87
2022/07/23 01:42:14;;;;;;;14.80;13.50;;;;;;;25.30;49.08;100263.06;5011568;28;100404;-87
2022/07/23 01:44:40;;;;;;;14.70;13.38;;;;;;;25.20;49.24;100264.97;5015172;28;96977;-87
2022/07/23 01:47:09;;;;;;;15.68;14.07;;;;;;;25.06;49.31;100246.63;5000020;28;97378;-87
2022/07/23 01:49:35;;;;;;;15.63;14.23;;;;;;;25.16;49.23;100263.59;5011219;28;100443;-87
2022/07/23 01:52:18;;;;;;;15.27;13.82;;;;;;;25.11;49.14;100273.03;5026324;28;97284;-86
2022/07/23 01:54:48;;;;;;;16.48;13.85;;;;;;;25.17;48.97;100265.25;5015615;28;96709;-87
2022/07/23 01:57:13;;;;;;;15.25;13.82;;;;;;;25.19;48.94;100267.78;5031726;28;96786;-87
2022/07/23 01:59:39;;;;;;;15.57;14.10;;;;;;;25.04;49.24;100252.13;4994625;28;101459;-87
2022/07/23 02:02:05;;;;;;;16.77;13.65;;;;;;;25.12;49.14;100251.41;5015004;28;100332;-86
2022/07/23 02:04:35;;;;;;;15.65;14.00;;;;;;;24.96;49.39;100233.25;5009141;28;96698;-87
2022/07/23 02:07:00;;;;;;;15.27;13.80;;;;;;;24.96;49.71;100252.03;5009978;28;97473;-86
2022/07/23 02:09:26;;;;;;;16.25;13.80;;;;;;;24.91;49.40;100245.41;4995488;28;101017;-87
2022/07/23 02:11:57;;;;;;;15.02;13.63;;;;;;;24.93;49.60;100238.03;4995077;28;101661;-86
2022/07/23 02:14:22;;;;;;;;;;;;;;;24.87;49.70;100235.94;4996338;28;97050;-87
2022/07/23 02:16:48;;;;;;;14.98;13.70;;;;;;;24.59;50.46;100217.94;5010420;28;96985;-87
2022/07/23 02:19:14;;;;;;;14.90;13.77;;;;;;;24.78;50.21;100243.03;4997674;28;100417;-87
2022/07/23 02:21:39;;;;;;;15.00;13.75;;;;;;;24.90;49.88;100241.00;5009470;28;98454;-87
2022/07/23 02:24:05;;;;;;;15.00;13.70;;;;;;;24.80;50.16;100239.22;5027945;28;97129;-88
2022/07/23 02:26:34;;;;;;;15.95;14.50;;;;;;;24.87;50.37;100241.31;5013256;28;97927;-87
2022/07/23 02:29:03;;;;;;;15.18;13.85;;;;;;;24.88;49.82;100243.88;5000584;28;100630;-87
2022/07/23 02:31:29;;;;;;;15.68;14.38;;;;;;;24.84;50.36;100239.75;5015558;28;98547;-88
2022/07/23 02:33:56;;;;;;;15.82;14.52;;;;;;;24.80;49.75;100211.53;4999636;28;96805;-87
2022/07/23 02:36:22;;;;;;;15.77;14.35;;;;;;;24.71;50.29;100225.84;4993560;28;97047;-87
2022/07/23 02:38:48;;;;;;;15.20;13.90;;;;;;;24.67;50.57;100235.16;5012483;28;101177;-87
2022/07/23 02:41:13;;;;;;;15.68;14.23;;;;;;;24.50;50.53;100210.78;5010867;28;101393;-87
2022/07/23 02:43:41;;;;;;;14.48;13.38;;;;;;;24.70;50.46;100216.94;5014302;27;97026;-87
2022/07/23 02:46:06;;;;;;;16.33;13.40;;;;;;;24.59;50.25;100185.75;5013599;28;97033;-87
2022/07/23 02:48:32;;;;;;;14.30;13.00;;;;;;;24.87;50.00;100217.16;5014554;28;100368;-88
2022/07/23 02:50:58;;;;;;;15.27;13.70;;;;;;;24.76;50.35;100221.72;5018105;28;100949;-87
2022/07/23 02:53:30;;;;;;;14.73;13.30;;;;;;;24.73;50.12;100216.66;5003325;28;96718;-87
2022/07/23 02:55:55;;;;;;;15.85;14.23;;;;;;;24.59;50.76;100212.59;5018318;28;96777;-87
2022/07/23 02:58:21;;;;;;;14.52;13.27;;;;;;;24.60;50.99;100222.31;5017509;28;101530;-87
2022/07/23 03:00:47;;;;;;;14.90;13.45;;;;;;;24.60;50.76;100218.78;5016780;28;100536;-87
2022/07/23 03:03:12;;;;;;;14.52;13.05;;;;;;;24.71;50.52;100215.94;5014901;28;96802;-87
2022/07/23 03:05:38;;;;;;;14.07;12.77;;;;;;;24.61;50.50;100212.44;5024327;28;97015;-87
2022/07/23 03:08:07;;;;;;;15.93;13.40;;;;;;;24.55;50.49;100213.00;5021061;28;101282;-87
2022/07/23 03:10:36;;;;;;;15.57;14.13;;;;;;;24.62;50.64;100230.22;5005571;28;101562;-87
2022/07/23 03:13:01;;;;;;;15.20;13.68;;;;;;;24.49;50.64;100229.69;5017904;28;97205;-88
2022/07/23 03:15:27;;;;;;;15.50;14.10;;;;;;;24.58;50.31;100228.81;4998110;28;96960;-87
2022/07/23 03:17:52;;;;;;;17.65;14.63;;;;;;;24.42;50.56;100237.44;5009340;28;101212;-87
2022/07/23 03:20:18;;;;;;;17.67;13.60;;;;;;;24.15;51.15;100225.59;5022239;28;101355;-87
2022/07/23 03:22:43;;;;;;;15.23;13.93;;;;;;;24.02;51.66;100225.03;5017972;28;96903;-87
2022/07/23 03:25:09;;;;;;;16.67;15.07;;;;;;;23.84;51.96;100232.09;5028917;28;97204;-87
2022/07/23 03:27:34;;;;;;;19.00;14.07;;;;;;;23.71;52.59;100235.88;5017278;28;101270;-88
2022/07/23 03:30:00;;;;;;;15.15;13.73;;;;;;;23.80;52.42;100225.34;5018507;28;98276;-86
2022/07/23 03:32:26;;;;;;;14.57;13.13;;;;;;;23.92;52.17;100216.16;5015292;28;96757;-86
2022/07/23 03:34:52;;;;;;;16.88;13.82;;;;;;;24.18;51.89;100244.09;5030618;28;97039;-87
2022/07/23 03:37:19;;;;;;;14.38;13.15;;;;;;;24.35;51.54;100244.38;5000076;28;101203;-87
2022/07/23 03:39:48;;;;;;;15.32;13.48;;;;;;;24.32;51.30;100232.09;5000661;28;100196;-88
2022/07/23 03:42:13;;;;;;;14.70;13.48;;;;;;;24.40;51.26;100234.91;5023830;27;97128;-87
2022/07/23 03:44:39;;;;;;;14.80;13.48;;;;;;;24.58;51.00;100237.72;5023789;27;97139;-87
2022/07/23 03:47:05;;;;;;;20.90;13.90;;;;;;;24.59;50.86;100225.16;5041025;27;101865;-88
2022/07/23 03:49:31;;;;;;;18.00;14.32;;;;;;;24.54;51.01;100239.00;5016452;27;100243;-87
2022/07/23 03:51:57;;;;;;;15.02;13.65;;;;;;;24.52;50.72;100235.63;5031840;27;96870;-86
2022/07/23 03:54:23;;;;;;;14.77;13.55;;;;;;;24.57;50.70;100236.03;5038282;27;96893;-86
2022/07/23 03:56:48;;;;;;;15.35;14.05;;;;;;;24.76;50.26;100240.50;5039071;27;99285;-87
2022/07/23 03:59:14;;;;;;;14.45;13.27;;;;;;;24.69;50.83;100246.59;5018216;27;101216;-87
2022/07/23 04:01:39;;;;;;;15.52;14.10;;;;;;;24.78;50.39;100241.22;5029348;27;96741;-86
2022/07/23 04:04:05;;;;;;;15.85;14.50;;;;;;;24.66;50.98;100239.69;5038852;27;96801;-87
2022/07/23 04:06:32;;;;;;;15.20;13.82;;;;;;;24.77;50.71;100244.03;5032100;27;100940;-87
2022/07/23 04:08:59;;;;;;;14.70;13.27;;;;;;;24.82;51.20;100249.81;5035027;27;99922;-87
2022/07/23 04:11:24;;;;;;;15.85;13.85;;;;;;;24.85;50.86;100236.94;5023890;27;96630;-88
2022/07/23 04:13:50;;;;;;;15.98;14.30;;;;;;;24.95;50.67;100231.53;5041177;27;97258;-86
2022/07/23 04:16:16;;;;;;;15.10;13.68;;;;;;;25.08;50.09;100221.31;5023996;27;101189;-87
2022/07/23 04:18:41;;;;;;;15.57;14.13;;;;;;;24.98;50.18;100216.97;5023796;27;101423;-87
2022/07/23 04:21:15;;;;;;;18.23;14.15;;;;;;;25.02;50.37;100213.00;5041725;27;96751;-87
2022/07/23 04:23:40;;;;;;;16.08;14.70;;;;;;;25.01;50.16;100204.09;5027330;27;96947;-87
2022/07/23 04:26:06;;;;;;;16.50;14.93;;;;;;;25.00;50.03;100201.56;5023027;27;101534;-87
2022/07/23 04:28:31;;;;;;;19.15;15.73;;;;;;;25.10;50.06;100198.81;5023735;27;101175;-87
2022/07/23 04:30:58;;;;;;;17.02;15.30;;;;;;;25.08;50.21;100202.53;5023643;27;96820;-86
2022/07/23 04:33:23;;;;;;;16.80;15.20;;;;;;;25.03;50.24;100195.91;5040729;27;96961;-87
2022/07/23 04:35:52;;;;;;;16.42;14.65;;;;;;;25.04;50.19;100195.72;5048199;27;101851;-87
2022/07/23 04:38:19;;;;;;;17.10;15.40;;;;;;;24.80;50.34;100168.59;5031902;27;101231;-88
2022/07/23 04:40:46;;;;;;;15.90;14.43;;;;;;;25.01;50.50;100195.19;5023646;27;97298;-87
2022/07/23 04:43:12;;;;;;;16.80;15.27;;;;;;;25.07;50.18;100195.47;5037572;27;96924;-87
2022/07/23 04:45:44;;;;;;;15.73;14.13;;;;;;;25.12;50.08;100191.47;5040119;27;100520;-87
2022/07/23 04:48:11;;;;;;;16.83;15.23;;;;;;;25.21;49.97;100190.59;5035844;27;100198;-86
2022/07/23 04:50:36;;;;;;;16.00;14.43;;;;;;;25.10;50.28;100180.88;5015731;27;96766;-87
2022/07/23 04:53:04;;;;;;;16.13;14.57;;;;;;;25.21;50.12;100177.19;5023769;27;98024;-87
2022/07/23 04:55:29;;;;;;;16.05;14.55;;;;;;;25.23;50.26;100173.34;5036857;27;101623;-87
2022/07/23 04:57:55;;;;;;;15.27;14.07;;;;;;;25.14;50.22;100160.84;5039666;27;101286;-87
2022/07/23 05:00:21;;;;;;;16.20;14.80;;;;;;;25.04;50.41;100157.31;5040404;27;96801;-87
2022/07/23 05:02:47;;;;;;;21.45;14.27;;;;;;;24.81;50.82;100154.16;5023106;27;96993;-87
2022/07/23 05:05:12;;;;;;;15.98;14.48;;;;;;;24.57;51.49;100155.53;5022892;27;100968;-87
2022/07/23 05:07:40;;;;;;;15.57;14.38;;;;;;;24.63;51.32;100143.38;5020696;27;102009;-87
2022/07/23 05:10:06;;;;;;;16.98;15.27;;;;;;;24.38;52.03;100137.63;5023337;27;97303;-87
2022/07/23 05:12:32;;;;;;;16.33;14.93;;;;;;;24.38;52.39;100124.22;5023219;27;96992;-87
2022/07/23 05:14:58;;;;;;;15.57;14.13;;;;;;;24.55;51.97;100149.47;5015245;27;101067;-87
2022/07/23 05:17:24;;;;;;;15.60;14.48;;;;;;;24.66;51.79;100139.53;5037021;27;101097;-87
2022/07/23 05:19:50;;;;;;;14.40;13.35;;;;;;;24.76;51.46;100138.53;5036128;27;97038;-87
2022/07/23 05:22:16;;;;;;;16.55;14.90;;;;;;;24.96;51.25;100138.41;5040156;27;97065;-87
2022/07/23 05:24:42;;;;;;;15.80;14.32;;;;;;;24.92;51.00;100126.28;5039175;27;101232;-87
2022/07/23 05:27:08;;;;;;;15.20;13.95;;;;;;;24.87;50.47;100105.28;5039471;27;101459;-87
2022/07/23 05:29:34;;;;;;;15.55;14.20;;;;;;;24.94;50.85;100116.25;5039349;27;97187;-86
2022/07/23 05:32:00;;;;;;;15.95;14.48;;;;;;;24.80;51.00;100131.00;5039667;27;96968;-87
2022/07/23 05:34:26;;;;;;;16.35;14.90;;;;;;;24.62;51.24;100096.91;5036123;27;101501;-86
2022/07/23 05:36:52;;;;;;;15.93;14.63;;;;;;;24.71;51.35;100111.28;5028523;27;100952;-87
2022/07/23 05:39:19;;;;;;;15.82;14.32;;;;;;;24.74;51.62;100118.19;5006092;27;96822;-86
2022/07/23 05:41:45;;;;;;;14.68;13.57;;;;;;;24.52;51.95;100116.72;5040370;27;96684;-87
2022/07/23 05:44:10;;;;;;;16.58;15.27;;;;;;;24.46;51.98;100103.88;5018848;27;101553;-87
2022/07/23 05:46:39;;;;;;;15.95;14.48;;;;;;;24.59;52.11;100116.00;5028223;27;100070;-86
2022/07/23 05:49:07;;;;;;;15.10;13.55;;;;;;;24.74;51.56;100097.56;5019370;27;96750;-87
2022/07/23 05:51:55;;;;;;;15.07;13.82;;;;;;;24.83;51.54;100106.56;5028206;27;96898;-87
2022/07/23 05:54:30;;;;;;;15.80;14.23;;;;;;;24.93;51.31;100107.38;5009929;27;99539;-86
2022/07/23 05:56:56;;;;;;;14.63;13.57;;;;;;;25.12;50.88;100110.91;5022146;27;101504;-86
2022/07/23 05:59:21;;;;;;;14.68;13.25;;;;;;;25.37;50.48;100109.38;5039364;27;96876;-86
2022/07/23 06:01:47;;;;;;;14.15;12.85;;;;;;;25.62;49.95;100113.13;5025458;27;96821;-87
2022/07/23 06:04:12;;;;;;;19.17;13.85;;;;;;;25.79;49.36;100087.22;5025155;27;100133;-87
2022/07/23 06:06:44;;;;;;;14.43;13.32;;;;;;;26.33;48.34;100118.41;5029595;27;99197;-88
2022/07/23 06:09:13;;;;;;;15.80;14.18;;;;;;;26.93;47.14;100127.47;5020749;27;97593;-87
2022/07/23 06:11:40;;;;;;;15.02;13.82;;;;;;;26.79;47.07;100127.09;5039970;27;97423;-87
2022/07/23 06:14:06;;;;;;;15.52;14.32;;;;;;;26.15;47.83;100122.97;5025275;27;100529;-87
2022/07/23 06:16:44;;;;;;;14.82;13.43;;;;;;;25.84;48.66;100131.50;5043699;27;100755;-87
2022/07/23 06:19:10;;;;;;;15.40;14.00;;;;;;;25.81;48.82;100130.94;5025036;27;96766;-87
2022/07/23 06:21:35;;;;;;;14.40;13.15;;;;;;;25.80;48.99;100138.13;5013936;27;96859;-87
2022/07/23 06:24:01;;;;;;;14.45;13.30;;;;;;;26.02;48.70;100127.94;5024878;27;101706;-87
2022/07/23 06:26:26;;;;;;;15.13;13.70;;;;;;;26.22;48.29;100126.75;5042120;27;101278;-87
2022/07/23 06:28:52;;;;;;;13.80;12.70;;;;;;;26.78;47.08;100122.69;5024404;27;96701;-89
2022/07/23 06:31:17;;;;;;;14.90;13.70;;;;;;;27.56;45.59;100108.13;5042052;27;96658;-87
2022/07/23 06:33:43;;;;;;;15.30;13.65;;;;;;;28.28;43.96;100104.75;5032337;27;98651;-89
2022/07/23 06:36:09;;;;;;;14.80;13.38;;;;;;;28.18;44.22;100111.13;5035570;27;101077;-88
2022/07/23 06:38:35;;;;;;;14.07;12.88;;;;;;;28.42;43.77;100101.34;5033943;27;97136;-87
2022/07/23 06:41:00;;;;;;;14.73;13.00;;;;;;;28.21;44.50;100104.56;5041032;27;96885;-88
2022/07/23 06:43:26;;;;;;;15.35;13.15;;;;;;;28.39;44.09;100099.81;5033280;27;101394;-87
2022/07/23 06:45:54;;;;;;;18.38;13.68;;;;;;;28.35;44.26;100097.63;5028290;27;100861;-89
2022/07/23 06:48:22;;;;;;;18.40;13.98;;;;;;;28.19;44.44;100087.72;5036036;27;97119;-89
2022/07/23 06:50:47;;;;;;;15.15;13.95;;;;;;;28.05;44.50;100083.03;5015026;27;96971;-90
2022/07/23 06:53:13;;;;;;;15.95;14.52;;;;;;;28.89;43.05;100085.13;5017952;27;101800;-89
2022/07/23 06:55:40;;;;;;;14.55;13.40;;;;;;;29.47;42.15;100066.72;5021079;27;100220;-89
2022/07/23 06:58:09;;;;;;;14.02;12.93;;;;;;;29.55;41.79;100076.59;5032308;27;96866;-88
2022/07/23 07:00:34;;;;;;;14.00;12.85;;;;;;;29.43;42.33;100069.94;5035134;27;96912;-90
2022/07/23 07:03:00;;;;;;;14.15;12.73;;;;;;;29.28;42.82;100050.97;5023633;27;101198;-90
2022/07/23 07:05:27;;;;;;;13.85;12.57;;;;;;;29.22;42.67;100082.25;5037241;27;101347;-89
2022/07/23 07:07:54;;;;;;;14.82;13.55;;;;;;;28.66;43.29;100071.56;5038814;27;96700;-89
2022/07/23 07:10:20;;;;;;;15.07;13.80;;;;;;;28.29;44.08;100058.69;5038319;27;97038;-89
2022/07/23 07:12:46;;;;;;;19.10;14.25;;;;;;;28.03;45.03;100088.56;5052523;27;100986;-90
2022/07/23 07:15:11;;;;;;;18.45;13.32;;;;;;;27.75;46.11;100088.91;5056276;27;101788;-90
2022/07/23 07:17:37;;;;;;;13.48;12.35;;;;;;;27.70;45.71;100060.78;5039419;27;96844;-88
2022/07/23 07:20:04;;;;;;;13.27;12.07;;;;;;;27.85;45.66;100064.50;5040758;27;96923;-88
2022/07/23 07:22:29;;;;;;;13.98;12.55;;;;;;;27.92;46.00;100078.97;5019119;27;101270;-91
2022/07/23 07:24:55;;;;;;;15.07;13.75;;;;;;;27.66;45.58;100073.72;5032915;27;101046;-88
2022/07/23 07:27:21;;;;;;;14.10;13.07;;;;;;;27.81;45.72;100065.00;5035552;27;97178;-88
2022/07/23 07:29:46;;;;;;;15.00;13.70;;;;;;;28.01;44.87;100065.47;5040304;27;96918;-88
2022/07/23 07:32:12;;;;;;;15.32;13.15;;;;;;;28.46;44.18;100069.47;5022576;27;100590;-87
2022/07/23 07:34:37;;;;;;;14.70;13.60;;;;;;;28.48;44.68;100075.50;5041084;27;99809;-88
2022/07/23 07:37:03;;;;;;;13.32;12.32;;;;;;;28.56;44.45;100072.78;5020356;27;97180;-87
2022/07/23 07:39:29;;;;;;;14.25;13.05;;;;;;;28.74;44.15;100064.44;5031434;27;97405;-84
2022/07/23 07:41:54;;;;;;;27.38;13.52;;;;;;;29.09;43.52;100061.25;5050493;27;98321;-86
2022/07/23 07:44:20;;;;;;;13.65;12.52;;;;;;;29.12;43.84;100057.34;5045178;27;97228;-86
2022/07/23 07:46:45;;;;;;;13.43;12.43;;;;;;;29.21;43.71;100063.53;5057526;27;96846;-86
2022/07/23 07:49:11;;;;;;;13.18;12.27;;;;;;;29.35;42.96;100051.91;5029792;27;96889;-87
2022/07/23 07:51:36;;;;;;;15.75;14.18;;;;;;;29.37;42.40;100055.28;5021612;27;100865;-87
2022/07/23 07:54:02;;;;;;;14.82;13.52;;;;;;;29.15;43.03;100032.66;5034686;27;101077;-86
2022/07/23 07:56:27;;;;;;;13.90;12.80;;;;;;;29.11;42.83;100051.06;5029170;27;96751;-86
2022/07/23 07:58:53;;;;;;;16.38;14.18;;;;;;;28.52;43.63;100026.41;5023140;27;96869;-86
2022/07/23 08:01:19;;;;;;;16.35;14.15;;;;;;;28.52;44.11;100053.41;5026406;27;101489;-85
2022/07/23 08:03:45;;;;;;;14.43;12.95;;;;;;;28.48;44.25;100045.81;5020227;27;101373;-86
2022/07/23 08:06:11;;;;;;;15.77;14.13;;;;;;;28.54;44.29;100042.44;5039101;27;96794;-86
2022/07/23 08:08:37;;;;;;;15.15;13.65;;;;;;;28.79;43.74;100038.56;5038275;27;96894;-87
2022/07/23 08:11:02;;;;;;;14.57;13.25;;;;;;;28.79;43.60;100045.84;5039669;27;101377;-86
2022/07/23 08:13:28;;;;;;;14.63;13.30;;;;;;;28.47;43.97;100022.53;5040017;27;101279;-87
2022/07/23 08:15:53;;;;;;;14.70;13.52;;;;;;;28.47;44.18;100050.38;5039078;27;97742;-89
2022/07/23 08:18:19;;;;;;;14.60;13.35;;;;;;;28.53;44.16;100043.44;5034059;27;96801;-89
2022/07/23 08:20:45;;;;;;;15.05;13.55;;;;;;;28.49;44.11;100050.22;5031579;27;101360;-89
2022/07/23 08:23:10;;;;;;;14.88;13.50;;;;;;;28.62;44.03;100054.03;5047721;27;99755;-87
2022/07/23 08:25:38;;;;;;;14.20;12.90;;;;;;;28.77;43.31;100027.13;5030080;27;96920;-89
2022/07/23 08:28:06;;;;;;;16.13;14.60;;;;;;;29.32;42.65;100052.28;5029033;27;96843;-89
2022/07/23 08:30:32;;;;;;;13.52;12.43;;;;;;;29.57;41.79;100042.13;5033421;27;98576;-86
2022/07/23 08:33:02;;;;;;;14.60;13.02;;;;;;;29.69;41.84;100053.38;5049544;27;97917;-87
2022/07/23 08:35:29;;;;;;;13.60;12.50;;;;;;;29.37;42.41;100040.94;5052229;27;96906;-93
2022/07/23 08:37:55;;;;;;;18.88;16.90;;;;;;;29.28;42.23;100056.38;5041787;27;97054;-93
2022/07/23 08:40:21;;;;;;;14.70;13.32;;;;;;;29.05;42.56;100046.38;5038449;27;96886;-91
2022/07/23 08:42:49;;;;;;;15.48;14.18;;;;;;;29.68;42.16;100049.84;5024773;28;101012;-83
2022/07/23 08:45:17;;;;;;;17.02;15.65;;;;;;;29.80;41.75;100035.88;5022168;28;97722;-83
2022/07/23 08:47:43;;;;;;;16.17;14.95;;;;;;;29.58;42.00;100027.56;5013691;27;98439;-84
2022/07/23 08:50:10;;;;;;;17.50;15.68;;;;;;;29.86;41.73;100033.28;5003292;28;101332;-84
2022/07/23 08:52:36;;;;;;;16.75;15.55;;;;;;;30.27;41.07;100037.44;4993134;28;101783;-83
2022/07/23 08:55:02;;;;;;;16.80;15.30;;;;;;;29.94;41.51;100019.66;5008544;28;97412;-83
2022/07/23 08:57:28;;;;;;;17.25;15.80;;;;;;;29.79;41.31;100032.34;5002765;28;97223;-83
2022/07/23 08:59:53;;;;;;;15.32;14.13;;;;;;;29.52;42.09;100041.81;5015171;28;98662;-83
2022/07/23 09:02:19;;;;;;;16.05;14.65;;;;;;;29.59;42.64;100036.56;5002855;28;101085;-84
2022/07/23 09:04:44;;;;;;;15.70;14.25;;;;;;;29.70;42.35;100023.47;5009460;28;98318;-84
2022/07/23 09:07:10;;;;;;;15.30;13.95;;;;;;;29.77;42.05;100029.81;4994489;28;97400;-79
2022/07/23 09:09:35;;;;;;;16.10;14.55;;;;;;;29.91;41.97;100025.44;5010635;28;98019;-79
2022/07/23 09:12:09;;;;;;;17.55;15.75;;;;;;;29.83;41.92;100027.41;5009830;28;101525;-80
2022/07/23 09:14:46;;;;;;;16.83;15.18;;;;;;;30.04;41.39;100024.78;5003211;28;96807;-81
2022/07/23 09:17:17;;;;;;;16.92;15.23;;;;;;;30.03;42.37;100027.69;5003132;28;97794;-84
2022/07/23 09:19:45;;;;;;;18.40;15.27;;;;;;;29.98;41.52;100009.31;4994812;28;101407;-83
2022/07/23 09:22:17;;;;;;;18.45;15.77;;;;;;;29.64;41.98;100024.19;5000582;28;101285;-84
2022/07/23 09:25:17;;;;;;;16.88;15.48;;;;;;;29.83;41.86;100027.41;5020838;28;97274;-84
2022/07/23 09:27:58;;;;;;;15.98;14.50;;;;;;;29.69;41.73;100029.88;4991963;28;96968;-84
2022/07/23 09:30:27;;;;;;;16.00;14.55;;;;;;;29.80;42.39;100025.06;5014732;28;97268;-82
2022/07/23 09:33:13;;;;;;;16.27;14.90;;;;;;;29.59;42.60;100015.75;5028218;28;97447;-77
2022/07/23 09:35:52;;;;;;;16.65;14.80;;;;;;;29.68;42.78;100019.25;5008317;28;96876;-76
2022/07/23 09:38:19;;;;;;;16.48;14.95;;;;;;;29.59;42.34;100012.22;5002841;28;97067;-77
2022/07/23 09:40:46;;;;;;;16.60;15.15;;;;;;;29.53;42.69;100013.78;5024271;28;98639;-77
2022/07/23 09:43:13;;;;;;;20.98;14.98;;;;;;;29.65;42.48;100022.34;5009035;28;101544;-83
2022/07/23 09:45:41;;;;;;;16.05;14.63;;;;;;;29.60;42.94;100022.84;4990189;28;97373;-85
2022/07/23 09:48:14;;;;;;;15.88;14.57;;;;;;;29.64;43.32;100036.84;5020239;28;96840;-83
2022/07/23 09:50:44;;;;;;;15.95;14.82;;;;;;;29.51;43.27;100024.78;4991666;28;102842;-83
2022/07/23 09:53:10;;;;;;;16.20;15.00;;;;;;;29.52;42.94;100048.06;4989972;28;101015;-83
2022/07/23 09:55:37;;;;;;;16.05;14.68;;;;;;;29.38;43.43;100048.03;5007741;28;96995;-83
2022/07/23 09:58:12;;;;;;;16.17;14.82;;;;;;;29.29;43.58;100061.63;5008403;28;97562;-82
2022/07/23 10:00:39;;;;;;;17.00;15.30;;;;;;;29.27;43.71;100060.94;5008675;28;101265;-82
2022/07/23 10:03:06;;;;;;;15.45;14.25;;;;;;;29.00;44.03;100046.09;5007987;28;98106;-80
2022/07/23 10:05:54;;;;;;;17.10;14.83;;;;;;;28.99;44.20;100073.25;5021367;28;97168;-83
2022/07/23 10:08:41;;;;;;;17.30;15.60;;;;;;;28.71;44.90;100051.28;4983146;28;97072;-84
2022/07/23 10:11:39;;;;;;;17.25;15.73;;;;;;;28.58;44.95;100049.16;4988208;28;99001;-83
2022/07/23 10:14:19;;;;;;;17.60;15.70;;;;;;;28.61;45.43;100062.31;5026851;28;101001;-84
2022/07/23 10:16:52;;;;;;;44.95;21.02;;;;;;;28.58;45.59;100068.06;5012849;28;97369;-83
2022/07/23 10:19:18;;;;;;;33.67;19.15;;;;;;;28.57;45.89;100074.47;5001969;28;96798;-82
2022/07/23 10:21:50;;;;;;;18.48;16.77;;;;;;;28.47;45.71;100080.06;5005079;28;97395;-83
2022/07/23 10:24:39;;;;;;;18.10;16.42;;;;;;;28.45;45.91;100076.72;5006722;28;101225;-84
2022/07/23 10:27:31;;;;;;;17.83;16.10;;;;;;;28.52;46.83;100083.09;5004990;28;96865;-85
2022/07/23 10:30:07;;;;;;;16.92;14.38;;;;;;;28.46;47.78;100089.19;5026807;28;97380;-85
2022/07/23 10:32:44;;;;;;;17.48;15.73;;;;;;;28.41;48.34;100083.44;5013408;28;102042;-84
2022/07/23 10:35:18;;;;;;;15.88;14.55;;;;;;;28.23;48.41;100063.94;5014819;28;98053;-87
2022/07/23 10:37:47;;;;;;;17.05;15.35;;;;;;;28.25;49.66;100095.13;5006988;28;97268;-83
2022/07/23 10:40:18;;;;;;;19.90;15.98;;;;;;;28.14;49.90;100080.13;5005861;28;96976;-83
2022/07/23 10:42:48;;;;;;;16.45;14.82;;;;;;;27.96;51.32;100104.59;5008811;28;101613;-82
2022/07/23 10:45:32;;;;;;;17.43;15.60;;;;;;;27.67;52.71;100105.09;5005822;28;101622;-85
2022/07/23 10:48:16;;;;;;;18.98;17.08;;;;;;;27.75;53.56;100133.88;5014521;27;96836;-85
2022/07/23 10:50:42;;;;;;;17.15;15.82;;;;;;;27.53;54.88;100130.00;4993098;28;97811;-83
2022/07/23 10:53:15;;;;;;;16.73;15.50;;;;;;;27.57;55.17;100141.31;4991658;28;101093;-82
2022/07/23 10:55:47;;;;;;;17.50;15.77;;;;;;;27.46;56.05;100140.63;5010642;28;100988;-83
2022/07/23 10:58:21;;;;;;;17.40;16.02;;;;;;;27.41;56.35;100148.34;5011789;28;97485;-82
2022/07/23 11:00:47;;;;;;;17.25;15.80;;;;;;;27.36;56.21;100155.25;5025536;28;97618;-82
2022/07/23 11:03:38;;;;;;;17.23;15.82;;;;;;;27.14;56.52;100148.56;5002796;28;101357;-82
2022/07/23 11:06:05;;;;;;;19.13;17.52;;;;;;;26.99;56.60;100151.06;4984950;28;101193;-83
2022/07/23 11:08:31;;;;;;;19.23;16.50;;;;;;;26.92;57.08;100150.03;5006040;28;98244;-83
2022/07/23 11:11:02;;;;;;;19.10;17.50;;;;;;;26.73;58.72;100161.88;5011707;28;97665;-83